Terminal Aerodrome Forecast
Issued by NWS

Home | Current Version | Previous Version | Text Only | Print | Product List | Glossary On
Versions: 1 2 3 4 5 6 7 8 9 10 11 12 13
000
FTUS45 KGJT 232328
TAFMTJ
TAF
KMTJ 232328Z 2400/2424 VRB05KT P6SM FEW130 FEW200
     FM240200 14007KT P6SM FEW140 FEW200
     FM240600 14010KT P6SM FEW150 FEW200
     FM241300 15006KT P6SM SKC
     FM241700 33005KT P6SM SKC=

USA.gov is the U.S. government's official web portal to all federal, state and local government web resources and services.